sensor_id;sensor_type;location;lat;lon;timestamp;pressure;altitude;pressure_sealevel;temperature;humidity
23176;BME280;19910;42.652;23.332;2023-03-01T00:00:04;95121.00;;;5.41;100.00
23176;BME280;19910;42.652;23.332;2023-03-01T00:02:33;95113.25;;;5.34;100.00
23176;BME280;19910;42.652;23.332;2023-03-01T00:05:00;95104.41;;;5.34;100.00
23176;BME280;19910;42.652;23.332;2023-03-01T00:07:27;95109.50;;;5.35;100.00
23176;BME280;19910;42.652;23.332;2023-03-01T00:09:54;95091.63;;;5.21;100.00
23176;BME280;19910;42.652;23.332;2023-03-01T00:12:20;95096.41;;;5.29;100.00
23176;BME280;19910;42.652;23.332;2023-03-01T00:14:47;95095.59;;;5.28;100.00
23176;BME280;19910;42.652;23.332;2023-03-01T00:17:14;95092.63;;;5.30;100.00
23176;BME280;19910;42.652;23.332;2023-03-01T00:19:42;95089.69;;;5.31;100.00
23176;BME280;19910;42.652;23.332;2023-03-01T00:22:09;95089.44;;;5.28;100.00
23176;BME280;19910;42.652;23.332;2023-03-01T00:24:36;95086.78;;;5.23;100.00
23176;BME280;19910;42.652;23.332;2023-03-01T00:27:02;95072.28;;;5.24;100.00
23176;BME280;19910;42.652;23.332;2023-03-01T00:29:29;95075.59;;;5.16;100.00
23176;BME280;19910;42.652;23.332;2023-03-01T00:31:56;95060.47;;;5.20;100.00
23176;BME280;19910;42.652;23.332;2023-03-01T00:34:23;95065.84;;;5.20;100.00
23176;BME280;19910;42.652;23.332;2023-03-01T00:36:51;95054.09;;;5.16;100.00
23176;BME280;19910;42.652;23.332;2023-03-01T00:39:18;95063.25;;;5.15;100.00
23176;BME280;19910;42.652;23.332;2023-03-01T00:41:45;95034.94;;;4.93;100.00
23176;BME280;19910;42.652;23.332;2023-03-01T00:44:11;95053.09;;;5.07;100.00
23176;BME280;19910;42.652;23.332;2023-03-01T00:46:38;95061.13;;;5.07;100.00
23176;BME280;19910;42.652;23.332;2023-03-01T00:49:05;95065.69;;;5.11;100.00
23176;BME280;19910;42.652;23.332;2023-03-01T00:51:32;95061.38;;;5.10;100.00
23176;BME280;19910;42.652;23.332;2023-03-01T00:54:02;95057.63;;;5.11;100.00
23176;BME280;19910;42.652;23.332;2023-03-01T00:56:29;95048.25;;;5.09;100.00
23176;BME280;19910;42.652;23.332;2023-03-01T00:58:56;95058.44;;;5.12;100.00
23176;BME280;19910;42.652;23.332;2023-03-01T01:01:25;95057.38;;;5.08;100.00
23176;BME280;19910;42.652;23.332;2023-03-01T01:03:54;95065.41;;;5.13;100.00
23176;BME280;19910;42.652;23.332;2023-03-01T01:06:22;95065.69;;;5.11;100.00
23176;BME280;19910;42.652;23.332;2023-03-01T01:08:50;95056.81;;;5.11;100.00
23176;BME280;19910;42.652;23.332;2023-03-01T01:11:20;95056.34;;;5.04;100.00
23176;BME280;19910;42.652;23.332;2023-03-01T01:13:47;95054.97;;;5.06;100.00
23176;BME280;19910;42.652;23.332;2023-03-01T01:16:15;95051.19;;;5.07;100.00
23176;BME280;19910;42.652;23.332;2023-03-01T01:18:42;95050.41;;;5.07;100.00
23176;BME280;19910;42.652;23.332;2023-03-01T01:21:12;95049.38;;;5.03;100.00
23176;BME280;19910;42.652;23.332;2023-03-01T01:23:40;95051.50;;;5.06;100.00
23176;BME280;19910;42.652;23.332;2023-03-01T01:26:09;95055.28;;;5.05;100.00
23176;BME280;19910;42.652;23.332;2023-03-01T01:28:38;95051.00;;;5.04;100.00
23176;BME280;19910;42.652;23.332;2023-03-01T01:31:05;95047.78;;;5.02;100.00
23176;BME280;19910;42.652;23.332;2023-03-01T01:33:33;95049.94;;;4.99;100.00
23176;BME280;19910;42.652;23.332;2023-03-01T01:36:00;95054.75;;;5.03;100.00
23176;BME280;19910;42.652;23.332;2023-03-01T01:38:26;95066.84;;;5.00;100.00
23176;BME280;19910;42.652;23.332;2023-03-01T01:40:53;95062.53;;;5.04;100.00
23176;BME280;19910;42.652;23.332;2023-03-01T01:43:22;95059.06;;;4.98;100.00
23176;BME280;19910;42.652;23.332;2023-03-01T01:45:52;95063.38;;;4.99;100.00
23176;BME280;19910;42.652;23.332;2023-03-01T01:48:24;95065.81;;;4.96;100.00
23176;BME280;19910;42.652;23.332;2023-03-01T01:51:07;95064.72;;;4.97;100.00
23176;BME280;19910;42.652;23.332;2023-03-01T01:53:36;95053.72;;;4.98;100.00
23176;BME280;19910;42.652;23.332;2023-03-01T01:56:07;95060.69;;;4.99;100.00
23176;BME280;19910;42.652;23.332;2023-03-01T01:58:35;95056.91;;;5.00;100.00
23176;BME280;19910;42.652;23.332;2023-03-01T02:01:05;95050.50;;;4.96;100.00
23176;BME280;19910;42.652;23.332;2023-03-01T02:03:34;95052.59;;;5.05;100.00
23176;BME280;19910;42.652;23.332;2023-03-01T02:06:12;95030.38;;;4.94;100.00
23176;BME280;19910;42.652;23.332;2023-03-01T02:08:42;95050.41;;;5.07;100.00
23176;BME280;19910;42.652;23.332;2023-03-01T02:11:10;95039.09;;;5.10;100.00
23176;BME280;19910;42.652;23.332;2023-03-01T02:13:40;95031.56;;;5.12;99.70
23176;BME280;19910;42.652;23.332;2023-03-01T02:16:11;95030.03;;;5.06;99.25
23176;BME280;19910;42.652;23.332;2023-03-01T02:18:40;95044.47;;;5.10;99.08
23176;BME280;19910;42.652;23.332;2023-03-01T02:21:23;95029.72;;;5.07;98.90
23176;BME280;19910;42.652;23.332;2023-03-01T02:23:53;95044.47;;;5.10;98.45
23176;BME280;19910;42.652;23.332;2023-03-01T02:26:26;95048.25;;;5.09;98.45
23176;BME280;19910;42.652;23.332;2023-03-01T02:28:57;95034.81;;;5.09;98.47
23176;BME280;19910;42.652;23.332;2023-03-01T02:31:24;95041.25;;;5.08;98.66
23176;BME280;19910;42.652;23.332;2023-03-01T02:34:12;95048.25;;;5.09;98.64
23176;BME280;19910;42.652;23.332;2023-03-01T02:36:41;95048.25;;;5.09;98.87
23176;BME280;19910;42.652;23.332;2023-03-01T02:39:12;95063.78;;;5.12;98.68
23176;BME280;19910;42.652;23.332;2023-03-01T02:41:48;95056.25;;;5.14;98.54
23176;BME280;19910;42.652;23.332;2023-03-01T02:44:17;95063.78;;;5.12;98.67
23176;BME280;19910;42.652;23.332;2023-03-01T02:46:46;95059.50;;;5.11;98.89
23176;BME280;19910;42.652;23.332;2023-03-01T02:49:23;95051.44;;;5.11;99.04
23176;BME280;19910;42.652;23.332;2023-03-01T02:51:59;95049.91;;;5.05;99.41
23176;BME280;19910;42.652;23.332;2023-03-01T02:54:30;95051.00;;;5.04;99.88
23176;BME280;19910;42.652;23.332;2023-03-01T02:57:00;95053.16;;;5.02;100.00
23176;BME280;19910;42.652;23.332;2023-03-01T02:59:31;95053.16;;;5.02;100.00
23176;BME280;19910;42.652;23.332;2023-03-01T03:02:00;95060.69;;;4.99;100.00
23176;BME280;19910;42.652;23.332;2023-03-01T03:04:27;95052.91;;;4.98;100.00
23176;BME280;19910;42.652;23.332;2023-03-01T03:06:54;95047.53;;;4.98;100.00
23176;BME280;19910;42.652;23.332;2023-03-01T03:09:20;95044.66;;;4.89;100.00
23176;BME280;19910;42.652;23.332;2023-03-01T03:11:47;95046.84;;;4.87;100.00
23176;BME280;19910;42.652;23.332;2023-03-01T03:14:16;95054.81;;;4.92;100.00
23176;BME280;19910;42.652;23.332;2023-03-01T03:16:46;95066.88;;;4.95;100.00
23176;BME280;19910;42.652;23.332;2023-03-01T03:19:14;95053.25;;;4.91;100.00
23176;BME280;19910;42.652;23.332;2023-03-01T03:21:42;95045.22;;;4.86;100.00
23176;BME280;19910;42.652;23.332;2023-03-01T03:24:09;95048.38;;;4.93;100.00
23176;BME280;19910;42.652;23.332;2023-03-01T03:26:35;95052.66;;;4.94;100.00
23176;BME280;19910;42.652;23.332;2023-03-01T03:29:02;95057.50;;;4.92;100.00
23176;BME280;19910;42.652;23.332;2023-03-01T03:31:29;95051.16;;;4.83;100.00
23176;BME280;19910;42.652;23.332;2023-03-01T03:33:57;95060.53;;;4.86;100.00
23176;BME280;19910;42.652;23.332;2023-03-01T03:36:24;95048.72;;;4.87;100.00
23176;BME280;19910;42.652;23.332;2023-03-01T03:38:51;95058.63;;;4.91;100.00
23176;BME280;19910;42.652;23.332;2023-03-01T03:41:18;95054.06;;;4.87;100.00
23176;BME280;19910;42.652;23.332;2023-03-01T03:43:45;95053.81;;;4.88;100.00
23176;BME280;19910;42.652;23.332;2023-03-01T03:46:11;95062.94;;;4.87;100.00
23176;BME280;19910;42.652;23.332;2023-03-01T03:48:41;95058.66;;;4.86;100.00
23176;BME280;19910;42.652;23.332;2023-03-01T03:51:12;95067.22;;;4.88;100.00
23176;BME280;19910;42.652;23.332;2023-03-01T03:53:39;95066.16;;;4.84;100.00
23176;BME280;19910;42.652;23.332;2023-03-01T03:56:07;95064.84;;;4.82;100.00
23176;BME280;19910;42.652;23.332;2023-03-01T03:58:34;95058.13;;;4.84;100.00
23176;BME280;19910;42.652;23.332;2023-03-01T04:01:01;95061.00;;;4.93;100.00
23176;BME280;19910;42.652;23.332;2023-03-01T04:03:29;95057.59;;;4.82;100.00
23176;BME280;19910;42.652;23.332;2023-03-01T04:05:57;95056.50;;;4.83;100.00
23176;BME280;19910;42.652;23.332;2023-03-01T04:08:27;95062.69;;;4.84;100.00
23176;BME280;19910;42.652;23.332;2023-03-01T04:10:58;95068.88;;;4.79;100.00
23176;BME280;19910;42.652;23.332;2023-03-01T04:13:26;95076.38;;;4.82;100.00
23176;BME280;19910;42.652;23.332;2023-03-01T04:15:54;95065.72;;;4.77;100.00
23176;BME280;19910;42.652;23.332;2023-03-01T04:18:23;95049.28;;;4.79;100.00
23176;BME280;19910;42.652;23.332;2023-03-01T04:20:51;95065.97;;;4.76;100.00
23176;BME280;19910;42.652;23.332;2023-03-01T04:23:20;95064.63;;;4.78;100.00
23176;BME280;19910;42.652;23.332;2023-03-01T04:25:50;95065.66;;;4.82;100.00
23176;BME280;19910;42.652;23.332;2023-03-01T04:28:20;95064.03;;;4.81;100.00
23176;BME280;19910;42.652;23.332;2023-03-01T04:30:46;95073.41;;;4.84;100.00
23176;BME280;19910;42.652;23.332;2023-03-01T04:33:13;95066.78;;;4.76;100.00
23176;BME280;19910;42.652;23.332;2023-03-01T04:35:40;95070.00;;;4.78;100.00
23176;BME280;19910;42.652;23.332;2023-03-01T04:38:07;95067.59;;;4.77;100.00
23176;BME280;19910;42.652;23.332;2023-03-01T04:40:34;95059.25;;;4.78;100.00
23176;BME280;19910;42.652;23.332;2023-03-01T04:43:03;95066.78;;;4.76;100.00
23176;BME280;19910;42.652;23.332;2023-03-01T04:45:31;95056.56;;;4.78;100.00
23176;BME280;19910;42.652;23.332;2023-03-01T04:47:59;95059.25;;;4.78;100.00
23176;BME280;19910;42.652;23.332;2023-03-01T04:50:26;95057.06;;;4.80;100.00
23176;BME280;19910;42.652;23.332;2023-03-01T04:52:54;95064.63;;;4.78;100.00
23176;BME280;19910;42.652;23.332;2023-03-01T04:55:24;95047.13;;;4.81;100.00
23176;BME280;19910;42.652;23.332;2023-03-01T04:57:51;95053.88;;;4.78;100.00
23176;BME280;19910;42.652;23.332;2023-03-01T05:00:21;95057.88;;;4.81;100.00
23176;BME280;19910;42.652;23.332;2023-03-01T05:02:49;95062.69;;;4.84;100.00
23176;BME280;19910;42.652;23.332;2023-03-01T05:05:20;95057.59;;;4.82;100.00
23176;BME280;19910;42.652;23.332;2023-03-01T05:07:47;95057.06;;;4.80;100.00
23176;BME280;19910;42.652;23.332;2023-03-01T05:10:14;95057.06;;;4.80;100.00
23176;BME280;19910;42.652;23.332;2023-03-01T05:12:41;95057.84;;;4.86;100.00
23176;BME280;19910;42.652;23.332;2023-03-01T05:15:08;95062.16;;;4.82;100.00
23176;BME280;19910;42.652;23.332;2023-03-01T05:17:36;95057.31;;;4.84;100.00
23176;BME280;19910;42.652;23.332;2023-03-01T05:20:04;95063.22;;;4.86;100.00
23176;BME280;19910;42.652;23.332;2023-03-01T05:22:34;95055.97;;;4.86;100.00
23176;BME280;19910;42.652;23.332;2023-03-01T05:25:02;95064.84;;;4.82;100.00
23176;BME280;19910;42.652;23.332;2023-03-01T05:27:29;95062.38;;;4.90;100.00
23176;BME280;19910;42.652;23.332;2023-03-01T05:29:56;95074.47;;;4.88;100.00
23176;BME280;19910;42.652;23.332;2023-03-01T05:32:22;95067.75;;;4.90;100.00
23176;BME280;19910;42.652;23.332;2023-03-01T05:34:51;95058.84;;;4.95;100.00
23176;BME280;19910;42.652;23.332;2023-03-01T05:37:20;95056.75;;;4.87;99.21
23176;BME280;19910;42.652;23.332;2023-03-01T05:39:47;95063.91;;;4.96;98.87
23176;BME280;19910;42.652;23.332;2023-03-01T05:42:15;95060.56;;;5.15;99.12
23176;BME280;19910;42.652;23.332;2023-03-01T05:44:42;95058.38;;;5.17;97.56
23176;BME280;19910;42.652;23.332;2023-03-01T05:47:09;95069.16;;;5.12;98.07
23176;BME280;19910;42.652;23.332;2023-03-01T05:49:35;95059.56;;;5.06;98.77
23176;BME280;19910;42.652;23.332;2023-03-01T05:52:04;95074.63;;;5.02;98.49
23176;BME280;19910;42.652;23.332;2023-03-01T05:54:30;95076.78;;;4.99;98.69
23176;BME280;19910;42.652;23.332;2023-03-01T05:56:58;95069.84;;;4.93;98.55
23176;BME280;19910;42.652;23.332;2023-03-01T05:59:25;95082.19;;;4.94;98.40
23176;BME280;19910;42.652;23.332;2023-03-01T06:01:52;95076.78;;;4.99;98.13
23176;BME280;19910;42.652;23.332;2023-03-01T06:04:18;95084.56;;;5.01;98.00
23176;BME280;19910;42.652;23.332;2023-03-01T06:06:46;95086.63;;;5.09;97.51
23176;BME280;19910;42.652;23.332;2023-03-01T06:09:14;95092.25;;;5.13;97.09
23176;BME280;19910;42.652;23.332;2023-03-01T06:11:41;95091.16;;;5.14;97.16
23176;BME280;19910;42.652;23.332;2023-03-01T06:14:08;95090.09;;;5.15;96.97
23176;BME280;19910;42.652;23.332;2023-03-01T06:16:36;95103.59;;;5.05;97.30
23176;BME280;19910;42.652;23.332;2023-03-01T06:19:02;95104.09;;;5.07;97.98
23176;BME280;19910;42.652;23.332;2023-03-01T06:21:29;95102.53;;;5.06;98.13
23176;BME280;19910;42.652;23.332;2023-03-01T06:23:56;95102.53;;;5.06;98.46
23176;BME280;19910;42.652;23.332;2023-03-01T06:26:24;95103.53;;;5.10;98.25
23176;BME280;19910;42.652;23.332;2023-03-01T06:28:51;95105.91;;;5.16;98.16
23176;BME280;19910;42.652;23.332;2023-03-01T06:31:17;95096.81;;;5.12;98.23
23176;BME280;19910;42.652;23.332;2023-03-01T06:33:44;95095.47;;;5.15;98.24
23176;BME280;19910;42.652;23.332;2023-03-01T06:36:11;95098.56;;;5.27;98.01
23176;BME280;19910;42.652;23.332;2023-03-01T06:38:38;95099.13;;;5.24;98.04
23176;BME280;19910;42.652;23.332;2023-03-01T06:41:06;95106.81;;;5.35;97.77
23176;BME280;19910;42.652;23.332;2023-03-01T06:43:34;95098.75;;;5.35;97.46
23176;BME280;19910;42.652;23.332;2023-03-01T06:46:04;95098.00;;;5.30;97.73
23176;BME280;19910;42.652;23.332;2023-03-01T06:48:32;95109.78;;;5.34;97.85
23176;BME280;19910;42.652;23.332;2023-03-01T06:50:59;95115.22;;;5.29;97.83
23176;BME280;19910;42.652;23.332;2023-03-01T06:53:27;95105.78;;;5.31;97.74
23176;BME280;19910;42.652;23.332;2023-03-01T06:55:54;95108.28;;;5.23;97.73
23176;BME280;19910;42.652;23.332;2023-03-01T06:58:21;95103.66;;;5.28;97.27
23176;BME280;19910;42.652;23.332;2023-03-01T07:00:49;95105.06;;;5.21;97.38
23176;BME280;19910;42.652;23.332;2023-03-01T07:03:16;95103.97;;;5.22;97.42
23176;BME280;19910;42.652;23.332;2023-03-01T07:05:43;95106.59;;;5.32;96.79
23176;BME280;19910;42.652;23.332;2023-03-01T07:08:10;95091.50;;;5.36;96.57
23176;BME280;19910;42.652;23.332;2023-03-01T07:10:37;95108.00;;;5.24;96.64
23176;BME280;19910;42.652;23.332;2023-03-01T07:13:04;95113.63;;;5.23;96.95
23176;BME280;19910;42.652;23.332;2023-03-01T07:15:32;95102.31;;;5.31;96.98
23176;BME280;19910;42.652;23.332;2023-03-01T07:18:00;95099.41;;;5.22;96.82
23176;BME280;19910;42.652;23.332;2023-03-01T07:20:27;95116.75;;;5.35;96.36
23176;BME280;19910;42.652;23.332;2023-03-01T07:22:54;95102.25;;;5.36;96.11
23176;BME280;19910;42.652;23.332;2023-03-01T07:25:23;95088.22;;;5.44;95.25
23176;BME280;19910;42.652;23.332;2023-03-01T07:27:51;95096.19;;;5.49;94.87
23176;BME280;19910;42.652;23.332;2023-03-01T07:30:18;95092.31;;;5.60;94.33
23176;BME280;19910;42.652;23.332;2023-03-01T07:32:45;95090.13;;;5.67;93.69
23176;BME280;19910;42.652;23.332;2023-03-01T07:35:14;95085.69;;;5.77;93.52
23176;BME280;19910;42.652;23.332;2023-03-01T07:37:41;95087.53;;;5.81;93.24
23176;BME280;19910;42.652;23.332;2023-03-01T07:40:09;95081.81;;;5.88;93.11
23176;BME280;19910;42.652;23.332;2023-03-01T07:42:36;95084.69;;;6.20;91.76
23176;BME280;19910;42.652;23.332;2023-03-01T07:45:04;95088.22;;;6.16;90.70
23176;BME280;19910;42.652;23.332;2023-03-01T07:47:31;95091.66;;;6.21;91.24
23176;BME280;19910;42.652;23.332;2023-03-01T07:49:58;95084.13;;;6.23;91.03
23176;BME280;19910;42.652;23.332;2023-03-01T07:52:28;95096.00;;;6.17;90.54
23176;BME280;19910;42.652;23.332;2023-03-01T07:54:54;95086.44;;;6.11;90.38
23176;BME280;19910;42.652;23.332;2023-03-01T07:57:21;95085.97;;;6.04;90.31
23176;BME280;19910;42.652;23.332;2023-03-01T07:59:48;95076.22;;;6.08;90.73
23176;BME280;19910;42.652;23.332;2023-03-01T08:02:15;95075.38;;;6.31;89.32
23176;BME280;19910;42.652;23.332;2023-03-01T08:04:42;95077.06;;;6.27;89.34
23176;BME280;19910;42.652;23.332;2023-03-01T08:07:08;95079.50;;;6.05;89.71
23176;BME280;19910;42.652;23.332;2023-03-01T08:09:37;95086.03;;;5.99;90.24
23176;BME280;19910;42.652;23.332;2023-03-01T08:12:05;95072.31;;;6.19;89.51
23176;BME280;19910;42.652;23.332;2023-03-01T08:14:32;95070.66;;;6.23;89.01
23176;BME280;19910;42.652;23.332;2023-03-01T08:16:59;95062.09;;;6.40;88.44
23176;BME280;19910;42.652;23.332;2023-03-01T08:19:28;95055.94;;;6.39;88.03
23176;BME280;19910;42.652;23.332;2023-03-01T08:21:55;95070.03;;;6.69;87.03
23176;BME280;19910;42.652;23.332;2023-03-01T08:24:24;95056.56;;;6.69;85.28
23176;BME280;19910;42.652;23.332;2023-03-01T08:26:52;95069.66;;;6.57;85.43
23176;BME280;19910;42.652;23.332;2023-03-01T08:29:19;95064.34;;;6.52;85.63
23176;BME280;19910;42.652;23.332;2023-03-01T08:31:48;95068.13;;;6.51;85.67
23176;BME280;19910;42.652;23.332;2023-03-01T08:34:16;95064.94;;;6.49;86.45
23176;BME280;19910;42.652;23.332;2023-03-01T08:36:44;95068.00;;;6.61;85.87
23176;BME280;19910;42.652;23.332;2023-03-01T08:39:12;95059.63;;;6.62;85.81
23176;BME280;19910;42.652;23.332;2023-03-01T08:41:39;95054.81;;;6.78;84.68
23176;BME280;19910;42.652;23.332;2023-03-01T08:44:09;95069.38;;;6.77;84.87
23176;BME280;19910;42.652;23.332;2023-03-01T08:46:39;95052.75;;;6.89;84.43
23176;BME280;19910;42.652;23.332;2023-03-01T08:49:07;95057.09;;;7.03;82.97
23176;BME280;19910;42.652;23.332;2023-03-01T08:51:34;95066.72;;;6.91;83.20
23176;BME280;19910;42.652;23.332;2023-03-01T08:54:02;95066.50;;;6.87;83.04
23176;BME280;19910;42.652;23.332;2023-03-01T08:56:29;95067.63;;;7.19;82.47
23176;BME280;19910;42.652;23.332;2023-03-01T08:58:56;95060.69;;;7.45;81.10
23176;BME280;19910;42.652;23.332;2023-03-01T09:01:24;95065.69;;;7.38;81.07
23176;BME280;19910;42.652;23.332;2023-03-01T09:03:51;95061.50;;;7.45;81.53
23176;BME280;19910;42.652;23.332;2023-03-01T09:06:18;95057.94;;;7.18;82.24
23176;BME280;19910;42.652;23.332;2023-03-01T09:08:47;95061.09;;;7.52;81.63
23176;BME280;19910;42.652;23.332;2023-03-01T09:11:17;95073.66;;;7.43;80.61
23176;BME280;19910;42.652;23.332;2023-03-01T09:13:45;95070.69;;;7.44;81.55
23176;BME280;19910;42.652;23.332;2023-03-01T09:16:14;95077.22;;;7.25;81.50
23176;BME280;19910;42.652;23.332;2023-03-01T09:18:43;95067.63;;;7.19;82.32
23176;BME280;19910;42.652;23.332;2023-03-01T09:21:13;95058.81;;;7.59;80.95
23176;BME280;19910;42.652;23.332;2023-03-01T09:23:42;95063.53;;;7.95;79.23
23176;BME280;19910;42.652;23.332;2023-03-01T09:26:10;95050.66;;;7.92;78.54
23176;BME280;19910;42.652;23.332;2023-03-01T09:28:38;95063.13;;;7.60;80.06
23176;BME280;19910;42.652;23.332;2023-03-01T09:31:06;95062.81;;;7.48;80.76
23176;BME280;19910;42.652;23.332;2023-03-01T09:33:33;95054.91;;;7.38;81.50
23176;BME280;19910;42.652;23.332;2023-03-01T09:36:03;95056.16;;;7.27;81.75
23176;BME280;19910;42.652;23.332;2023-03-01T09:38:31;95067.44;;;7.29;81.30
23176;BME280;19910;42.652;23.332;2023-03-01T09:40:59;95052.69;;;7.40;81.05
23176;BME280;19910;42.652;23.332;2023-03-01T09:43:30;95050.59;;;7.23;81.62
23176;BME280;19910;42.652;23.332;2023-03-01T09:46:04;95048.28;;;6.98;82.84
23176;BME280;19910;42.652;23.332;2023-03-01T09:48:38;95053.69;;;6.98;82.65
23176;BME280;19910;42.652;23.332;2023-03-01T09:51:14;95040.75;;;7.13;82.90
23176;BME280;19910;42.652;23.332;2023-03-01T09:53:43;95056.91;;;7.46;81.32
23176;BME280;19910;42.652;23.332;2023-03-01T09:56:17;95043.88;;;7.21;82.27
23176;BME280;19910;42.652;23.332;2023-03-01T09:58:51;95031.72;;;7.23;81.94
23176;BME280;19910;42.652;23.332;2023-03-01T10:01:32;95029.13;;;7.32;81.80
23176;BME280;19910;42.652;23.332;2023-03-01T10:04:09;95029.84;;;7.24;82.06
23176;BME280;19910;42.652;23.332;2023-03-01T10:06:45;95042.88;;;7.17;82.53
23176;BME280;19910;42.652;23.332;2023-03-01T10:09:17;95019.75;;;7.43;82.41
23176;BME280;19910;42.652;23.332;2023-03-01T10:11:47;95028.63;;;7.30;81.69
23176;BME280;19910;42.652;23.332;2023-03-01T10:14:22;95013.97;;;7.36;81.21
23176;BME280;19910;42.652;23.332;2023-03-01T10:16:56;95020.97;;;7.37;82.24
23176;BME280;19910;42.652;23.332;2023-03-01T10:19:28;95017.97;;;7.52;81.42
23176;BME280;19910;42.652;23.332;2023-03-01T10:22:03;95015.25;;;7.38;81.79
23176;BME280;19910;42.652;23.332;2023-03-01T10:24:32;95019.38;;;7.36;82.33
23176;BME280;19910;42.652;23.332;2023-03-01T10:27:05;94995.63;;;7.52;81.61
23176;BME280;19910;42.652;23.332;2023-03-01T10:29:42;95014.34;;;7.16;82.14
23176;BME280;19910;42.652;23.332;2023-03-01T10:32:12;95005.69;;;7.32;82.75
23176;BME280;19910;42.652;23.332;2023-03-01T10:34:39;94997.81;;;7.63;81.84
23176;BME280;19910;42.652;23.332;2023-03-01T10:37:12;95001.41;;;7.72;80.94
23176;BME280;19910;42.652;23.332;2023-03-01T10:39:55;94991.41;;;7.87;80.35
23176;BME280;19910;42.652;23.332;2023-03-01T10:42:26;94976.72;;;7.93;80.26
23176;BME280;19910;42.652;23.332;2023-03-01T10:44:58;94988.81;;;7.68;80.43
23176;BME280;19910;42.652;23.332;2023-03-01T10:47:40;94984.63;;;7.75;80.47
23176;BME280;19910;42.652;23.332;2023-03-01T10:50:18;94990.53;;;7.77;80.10
23176;BME280;19910;42.652;23.332;2023-03-01T10:52:57;94993.00;;;8.01;79.32
23176;BME280;19910;42.652;23.332;2023-03-01T10:55:28;94986.63;;;7.83;79.59
23176;BME280;19910;42.652;23.332;2023-03-01T10:58:08;94993.81;;;8.02;78.93
23176;BME280;19910;42.652;23.332;2023-03-01T11:00:46;94990.97;;;8.07;79.09
23176;BME280;19910;42.652;23.332;2023-03-01T11:03:15;95002.41;;;8.04;78.91
23176;BME280;19910;42.652;23.332;2023-03-01T11:05:58;94992.00;;;7.97;79.08
23176;BME280;19910;42.652;23.332;2023-03-01T11:08:41;94986.56;;;8.25;78.33
23176;BME280;19910;42.652;23.332;2023-03-01T11:11:23;94978.13;;;7.90;79.52
23176;BME280;19910;42.652;23.332;2023-03-01T11:13:55;94999.81;;;7.71;80.23
23176;BME280;19910;42.652;23.332;2023-03-01T11:16:26;94982.44;;;7.77;80.07
23176;BME280;19910;42.652;23.332;2023-03-01T11:19:04;94993.97;;;8.19;79.27
23176;BME280;19910;42.652;23.332;2023-03-01T11:21:33;94987.00;;;8.04;78.58
23176;BME280;19910;42.652;23.332;2023-03-01T11:24:04;94987.69;;;8.10;78.62
23176;BME280;19910;42.652;23.332;2023-03-01T11:26:36;94999.81;;;7.71;80.15
23176;BME280;19910;42.652;23.332;2023-03-01T11:29:07;94993.63;;;7.43;81.65
23176;BME280;19910;42.652;23.332;2023-03-01T11:31:40;95001.69;;;7.43;81.78
23176;BME280;19910;42.652;23.332;2023-03-01T11:34:11;94993.22;;;7.50;81.42
23176;BME280;19910;42.652;23.332;2023-03-01T11:36:42;94993.81;;;7.74;81.09
23176;BME280;19910;42.652;23.332;2023-03-01T11:39:18;94980.44;;;7.69;81.70
23176;BME280;19910;42.652;23.332;2023-03-01T11:41:50;94975.41;;;8.04;80.05
23176;BME280;19910;42.652;23.332;2023-03-01T11:44:23;94967.00;;;8.19;79.59
23176;BME280;19910;42.652;23.332;2023-03-01T11:47:14;94964.91;;;8.16;79.15
23176;BME280;19910;42.652;23.332;2023-03-01T11:50:08;94969.94;;;7.68;80.11
23176;BME280;19910;42.652;23.332;2023-03-01T11:52:48;94948.88;;;7.70;80.55
23176;BME280;19910;42.652;23.332;2023-03-01T11:55:43;94944.34;;;7.93;79.42
23176;BME280;19910;42.652;23.332;2023-03-01T11:58:25;94944.84;;;7.95;78.34
23176;BME280;19910;42.652;23.332;2023-03-01T12:01:12;94954.81;;;8.08;78.75
23176;BME280;19910;42.652;23.332;2023-03-01T12:04:00;94950.38;;;8.26;78.38
23176;BME280;19910;42.652;23.332;2023-03-01T12:06:39;94949.78;;;8.29;78.04
23176;BME280;19910;42.652;23.332;2023-03-01T12:09:19;94940.03;;;8.05;78.95
23176;BME280;19910;42.652;23.332;2023-03-01T12:12:22;94946.56;;;8.40;78.56
23176;BME280;19910;42.652;23.332;2023-03-01T12:18:28;94929.47;;;8.98;75.19
23176;BME280;19910;42.652;23.332;2023-03-01T12:21:10;94929.75;;;8.88;75.20
23176;BME280;19910;42.652;23.332;2023-03-01T12:23:57;94922.63;;;8.70;75.60
23176;BME280;19910;42.652;23.332;2023-03-01T12:26:33;94932.66;;;8.47;76.72
23176;BME280;19910;42.652;23.332;2023-03-01T12:29:23;94936.69;;;8.58;76.18
23176;BME280;19910;42.652;23.332;2023-03-01T12:32:03;94934.94;;;8.62;76.85
23176;BME280;19910;42.652;23.332;2023-03-01T12:34:46;94925.31;;;8.47;77.07
23176;BME280;19910;42.652;23.332;2023-03-01T12:37:25;94924.84;;;8.45;76.38
23176;BME280;19910;42.652;23.332;2023-03-01T12:40:03;94926.44;;;8.46;76.35
23176;BME280;19910;42.652;23.332;2023-03-01T12:42:43;94909.59;;;8.27;75.89
23176;BME280;19910;42.652;23.332;2023-03-01T12:45:33;94917.06;;;8.30;75.68
23176;BME280;19910;42.652;23.332;2023-03-01T12:48:15;94919.53;;;8.18;76.95
23176;BME280;19910;42.652;23.332;2023-03-01T12:50:48;94923.63;;;8.15;77.46
23176;BME280;19910;42.652;23.332;2023-03-01T12:53:22;94901.34;;;8.46;76.22
23176;BME280;19910;42.652;23.332;2023-03-01T12:55:50;94906.78;;;8.77;75.21
23176;BME280;19910;42.652;23.332;2023-03-01T12:58:24;94916.13;;;8.48;75.04
23176;BME280;19910;42.652;23.332;2023-03-01T13:01:10;94922.75;;;8.65;74.91
23176;BME280;19910;42.652;23.332;2023-03-01T13:04:01;94917.59;;;8.54;74.58
23176;BME280;19910;42.652;23.332;2023-03-01T13:06:34;94914.06;;;8.45;75.27
23176;BME280;19910;42.652;23.332;2023-03-01T13:09:06;94913.59;;;9.05;74.53
23176;BME280;19910;42.652;23.332;2023-03-01T13:11:36;94922.09;;;8.90;74.10
23176;BME280;19910;42.652;23.332;2023-03-01T13:17:29;94923.34;;;8.39;75.91
23176;BME280;19910;42.652;23.332;2023-03-01T13:19:57;94934.22;;;8.12;76.39